createdAt,value
2017-12-17T00:01:55.130Z,4.72
2017-12-17T00:04:22.752Z,4.07
2017-12-17T00:06:50.387Z,2.83
2017-12-17T00:09:18.015Z,4.03
2017-12-17T00:11:45.594Z,6.72
2017-12-17T00:14:13.211Z,3.70
2017-12-17T00:16:40.945Z,4.55
2017-12-17T00:19:09.266Z,4.62
2017-12-17T00:21:36.883Z,4.27
2017-12-17T00:24:04.524Z,3.12
2017-12-17T00:26:32.098Z,3.33
2017-12-17T00:28:59.701Z,3.40
2017-12-17T00:31:27.290Z,2.87
2017-12-17T00:33:54.829Z,3.53
2017-12-17T00:36:22.654Z,2.90
2017-12-17T00:38:50.243Z,3.45
2017-12-17T00:41:18.166Z,3.05
2017-12-17T00:43:45.774Z,3.58
2017-12-17T00:46:13.396Z,2.70
2017-12-17T00:48:42.368Z,3.10
2017-12-17T00:51:10.059Z,4.43
2017-12-17T00:53:37.666Z,3.80
2017-12-17T00:56:06.136Z,3.65
2017-12-17T00:58:33.685Z,3.42
2017-12-17T01:01:01.459Z,3.42
2017-12-17T01:03:29.199Z,3.75
2017-12-17T01:05:56.769Z,3.35
2017-12-17T01:08:24.396Z,3.78
2017-12-17T01:10:51.922Z,3.25
2017-12-17T01:13:22.461Z,2.55
2017-12-17T01:15:51.475Z,2.45
2017-12-17T01:18:19.631Z,2.90
2017-12-17T01:20:51.498Z,2.30
2017-12-17T01:23:19.526Z,2.12
2017-12-17T01:25:47.067Z,1.70
2017-12-17T01:28:14.697Z,2.78
2017-12-17T01:30:42.314Z,2.75
2017-12-17T01:33:09.863Z,1.80
2017-12-17T01:35:37.446Z,2.45
2017-12-17T01:38:05.026Z,1.87
2017-12-17T01:40:33.499Z,1.92
2017-12-17T01:43:01.096Z,3.15
2017-12-17T01:45:28.712Z,2.10
2017-12-17T01:47:56.482Z,3.85
2017-12-17T01:50:24.088Z,2.15
2017-12-17T01:52:51.685Z,1.80
2017-12-17T01:55:19.287Z,2.08
2017-12-17T01:57:46.852Z,2.00
2017-12-17T02:00:14.545Z,1.40
2017-12-17T02:02:42.155Z,1.65
2017-12-17T02:05:09.736Z,1.65
2017-12-17T02:07:37.319Z,1.60
2017-12-17T02:10:04.891Z,1.80
2017-12-17T02:12:33.246Z,1.65
2017-12-17T02:15:00.875Z,1.95
2017-12-17T02:17:28.699Z,1.45
2017-12-17T02:19:56.316Z,2.00
2017-12-17T02:22:23.881Z,2.15
2017-12-17T02:24:51.461Z,2.33
2017-12-17T02:27:19.226Z,3.15
2017-12-17T02:29:46.863Z,2.22
2017-12-17T02:32:15.225Z,2.37
2017-12-17T02:34:42.831Z,2.00
2017-12-17T02:37:10.419Z,1.87
2017-12-17T02:39:38.011Z,2.55
2017-12-17T02:42:05.649Z,1.40
2017-12-17T02:44:33.422Z,1.40
2017-12-17T02:47:01.365Z,1.40
2017-12-17T02:49:28.934Z,1.80
2017-12-17T02:51:56.516Z,1.83
2017-12-17T02:54:24.141Z,1.90
2017-12-17T02:56:51.728Z,1.70
2017-12-17T02:59:19.302Z,1.98
2017-12-17T03:01:46.908Z,2.00
2017-12-17T03:04:14.485Z,1.92
2017-12-17T03:06:42.058Z,2.15
2017-12-17T03:09:09.723Z,2.10
2017-12-17T03:11:37.365Z,1.65
2017-12-17T03:14:04.966Z,1.60
2017-12-17T03:16:32.551Z,2.30
2017-12-17T03:19:00.679Z,1.62
2017-12-17T03:21:28.218Z,1.90
2017-12-17T03:23:55.838Z,1.77
2017-12-17T03:26:23.641Z,1.90
2017-12-17T03:28:51.376Z,1.87
2017-12-17T03:31:19.774Z,2.00
2017-12-17T03:33:47.381Z,1.90
2017-12-17T03:36:14.942Z,1.90
2017-12-17T03:38:43.030Z,1.45
2017-12-17T03:41:10.830Z,1.77
2017-12-17T03:43:39.251Z,3.85
2017-12-17T03:46:06.907Z,2.03
2017-12-17T03:48:34.497Z,1.83
2017-12-17T03:51:02.214Z,1.50
2017-12-17T03:53:30.315Z,2.28
2017-12-17T03:55:58.430Z,2.45
2017-12-17T03:58:26.067Z,1.70
2017-12-17T04:00:53.851Z,1.75
2017-12-17T04:03:21.401Z,2.03
2017-12-17T04:05:48.977Z,2.33
2017-12-17T04:08:17.395Z,2.83
2017-12-17T04:10:45.096Z,2.53
2017-12-17T04:13:12.675Z,5.18
2017-12-17T04:15:40.287Z,2.40
2017-12-17T04:18:07.948Z,2.97
2017-12-17T04:20:35.547Z,2.72
2017-12-17T04:23:03.163Z,2.60
2017-12-17T04:25:31.592Z,2.85
2017-12-17T04:27:59.233Z,2.30
2017-12-17T04:30:27.006Z,2.58
2017-12-17T04:32:54.825Z,2.50
2017-12-17T04:35:22.410Z,2.15
2017-12-17T04:37:49.987Z,3.10
2017-12-17T04:40:17.596Z,3.80
2017-12-17T04:42:45.150Z,2.90
2017-12-17T04:45:13.932Z,2.42
2017-12-17T04:47:41.558Z,2.90
2017-12-17T04:50:09.167Z,1.92
2017-12-17T04:52:36.894Z,2.03
2017-12-17T04:55:04.696Z,2.05
2017-12-17T04:57:32.551Z,2.10
2017-12-17T05:00:00.170Z,4.15
2017-12-17T05:02:27.800Z,3.15
2017-12-17T05:04:55.433Z,3.58
2017-12-17T05:07:23.313Z,2.60
2017-12-17T05:09:50.944Z,3.00
2017-12-17T05:12:18.542Z,2.80
2017-12-17T05:14:46.312Z,3.75
2017-12-17T05:17:13.900Z,4.22
2017-12-17T05:19:41.447Z,3.45
2017-12-17T05:22:09.055Z,2.75
2017-12-17T05:24:36.641Z,4.05
2017-12-17T05:27:04.231Z,3.20
2017-12-17T05:29:32.052Z,4.43
2017-12-17T05:31:59.744Z,2.85
2017-12-17T05:34:27.370Z,3.35
2017-12-17T05:36:55.324Z,3.20
2017-12-17T05:39:22.929Z,5.22
2017-12-17T05:41:50.479Z,6.68
2017-12-17T05:44:18.257Z,4.00
2017-12-17T05:46:45.883Z,5.15
2017-12-17T05:49:13.509Z,2.80
2017-12-17T05:51:41.361Z,3.75
2017-12-17T05:54:09.873Z,4.43
2017-12-17T05:56:37.736Z,5.20
2017-12-17T05:59:05.346Z,4.22
2017-12-17T06:01:33.013Z,4.85
2017-12-17T06:04:00.804Z,3.78
2017-12-17T06:06:28.372Z,4.25
2017-12-17T06:08:55.949Z,4.45
2017-12-17T06:11:23.599Z,4.78
2017-12-17T06:13:51.194Z,5.07
2017-12-17T06:16:18.814Z,5.70
2017-12-17T06:18:46.404Z,4.97
2017-12-17T06:21:13.985Z,4.70
2017-12-17T06:23:41.614Z,4.93
2017-12-17T06:26:09.423Z,4.07
2017-12-17T06:28:37.057Z,3.72
2017-12-17T06:31:04.665Z,4.18
2017-12-17T06:33:32.242Z,2.90
2017-12-17T06:35:59.794Z,3.05
2017-12-17T06:38:27.697Z,4.43
2017-12-17T06:40:55.513Z,3.70
2017-12-17T06:43:23.138Z,4.85
2017-12-17T06:45:50.770Z,4.35
2017-12-17T06:48:18.331Z,3.78
2017-12-17T06:50:46.104Z,3.80
2017-12-17T06:53:13.772Z,4.25
2017-12-17T06:55:41.360Z,5.05
2017-12-17T06:58:09.038Z,5.10
2017-12-17T07:00:36.627Z,7.95
2017-12-17T07:03:04.224Z,4.10
2017-12-17T07:05:31.757Z,5.55
2017-12-17T07:07:59.351Z,4.85
2017-12-17T07:10:27.878Z,6.53
2017-12-17T07:12:55.466Z,8.50
2017-12-17T07:15:24.508Z,6.93
2017-12-17T07:17:52.116Z,7.55
2017-12-17T07:20:19.808Z,7.65
2017-12-17T07:22:47.419Z,8.85
2017-12-17T07:25:15.225Z,8.95
2017-12-17T07:27:42.795Z,5.93
2017-12-17T07:30:10.562Z,5.68
2017-12-17T07:32:38.373Z,6.90
2017-12-17T07:35:05.934Z,6.93
2017-12-17T07:37:33.562Z,6.22
2017-12-17T07:40:01.425Z,6.40
2017-12-17T07:42:29.011Z,6.85
2017-12-17T07:44:56.639Z,5.53
2017-12-17T07:47:24.268Z,6.25
2017-12-17T07:49:51.820Z,8.13
2017-12-17T07:52:19.420Z,8.48
2017-12-17T07:54:47.673Z,7.72
2017-12-17T07:57:15.475Z,5.95
2017-12-17T07:59:43.124Z,5.80
2017-12-17T08:02:10.930Z,7.30
2017-12-17T08:04:38.579Z,9.07
2017-12-17T08:07:06.372Z,6.28
2017-12-17T08:09:34.057Z,7.18
2017-12-17T08:12:01.629Z,8.38
2017-12-17T08:14:29.657Z,8.32
2017-12-17T08:16:57.279Z,8.95
2017-12-17T08:19:25.108Z,9.32
2017-12-17T08:21:52.728Z,9.98
2017-12-17T08:24:21.362Z,9.70
2017-12-17T08:26:54.526Z,8.95
2017-12-17T08:29:24.186Z,11.45
2017-12-17T08:31:51.869Z,6.30
2017-12-17T08:34:19.780Z,6.53
2017-12-17T08:36:47.334Z,10.23
2017-12-17T08:39:15.132Z,6.37
2017-12-17T08:41:44.173Z,9.10
2017-12-17T08:44:13.560Z,7.75
2017-12-17T08:46:41.286Z,9.27
2017-12-17T08:49:10.180Z,9.07
2017-12-17T08:55:25.089Z,11.00
2017-12-17T08:57:52.706Z,11.43
2017-12-17T09:00:24.069Z,11.27
2017-12-17T09:02:51.691Z,8.60
2017-12-17T09:05:19.500Z,10.93
2017-12-17T09:07:47.220Z,22.50
2017-12-17T09:10:18.125Z,10.55
2017-12-17T09:12:48.173Z,11.20
2017-12-17T09:15:19.173Z,10.60
2017-12-17T09:17:47.806Z,8.68
2017-12-17T09:20:16.749Z,9.00
2017-12-17T09:22:44.598Z,7.93
2017-12-17T09:25:12.664Z,9.93
2017-12-17T09:27:40.321Z,7.62
2017-12-17T09:30:09.416Z,8.50
2017-12-17T09:32:37.260Z,9.02
2017-12-17T09:35:05.447Z,8.68
2017-12-17T09:37:35.021Z,9.00
2017-12-17T09:40:02.883Z,11.10
2017-12-17T09:42:30.703Z,9.45
2017-12-17T09:44:58.603Z,13.32
2017-12-17T09:47:26.253Z,12.50
2017-12-17T09:49:53.844Z,17.08
2017-12-17T09:52:21.467Z,16.40
2017-12-17T09:54:49.636Z,15.68
2017-12-17T09:57:17.476Z,16.48
2017-12-17T09:59:45.341Z,16.92
2017-12-17T10:02:13.725Z,14.40
2017-12-17T10:04:42.667Z,13.10
2017-12-17T10:07:10.580Z,21.73
2017-12-17T10:09:38.929Z,11.95
2017-12-17T10:12:06.743Z,12.73
2017-12-17T10:14:34.433Z,17.35
2017-12-17T10:17:02.160Z,17.23
2017-12-17T10:19:30.926Z,20.60
2017-12-17T10:21:58.561Z,18.05
2017-12-17T10:24:26.239Z,14.35
2017-12-17T10:26:53.877Z,14.18
2017-12-17T10:29:21.700Z,12.73
2017-12-17T10:31:49.415Z,19.33
2017-12-17T10:34:17.198Z,25.62
2017-12-17T10:36:46.096Z,19.45
2017-12-17T10:39:14.568Z,21.70
2017-12-17T10:41:43.333Z,24.63
2017-12-17T10:44:11.138Z,26.10
2017-12-17T10:46:38.828Z,22.37
2017-12-17T10:49:06.420Z,19.73
2017-12-17T10:51:34.045Z,21.20
2017-12-17T10:54:02.543Z,17.17
2017-12-17T10:56:30.274Z,19.73
2017-12-17T10:58:58.191Z,18.48
2017-12-17T11:01:25.849Z,17.23
2017-12-17T11:03:54.313Z,19.62
2017-12-17T11:06:22.716Z,22.48
2017-12-17T11:08:50.476Z,22.05
2017-12-17T11:11:19.768Z,22.37
2017-12-17T11:13:47.537Z,21.92
2017-12-17T11:16:15.288Z,17.65
2017-12-17T11:18:43.142Z,21.52
2017-12-17T11:21:11.236Z,25.27
2017-12-17T11:23:40.021Z,21.45
2017-12-17T11:26:07.705Z,23.73
2017-12-17T11:28:35.531Z,20.45
2017-12-17T11:31:04.121Z,24.60
2017-12-17T11:33:31.916Z,23.45
2017-12-17T11:35:59.552Z,21.85
2017-12-17T11:38:27.552Z,20.25
2017-12-17T11:40:56.154Z,19.80
2017-12-17T11:43:25.435Z,18.62
2017-12-17T11:45:54.048Z,16.67
2017-12-17T11:48:21.777Z,19.25
2017-12-17T11:50:49.611Z,19.95
2017-12-17T11:53:18.184Z,18.70
2017-12-17T11:55:46.535Z,18.80
2017-12-17T11:58:15.261Z,18.80
2017-12-17T12:00:43.271Z,17.77
2017-12-17T12:03:12.675Z,18.80
2017-12-17T12:05:41.022Z,16.87
2017-12-17T12:08:08.677Z,23.62
2017-12-17T12:10:42.114Z,29.58
2017-12-17T12:13:11.009Z,25.33
2017-12-17T12:15:52.717Z,29.40
2017-12-17T12:18:22.014Z,19.62
2017-12-17T12:20:49.895Z,20.65
2017-12-17T12:23:17.553Z,21.52
2017-12-17T12:25:45.554Z,22.77
2017-12-17T12:28:14.742Z,18.98
2017-12-17T12:30:49.563Z,22.55
2017-12-17T12:33:20.870Z,18.27
2017-12-17T12:43:13.700Z,16.37
2017-12-17T12:45:54.691Z,17.67
2017-12-17T12:57:44.602Z,12.82
2017-12-17T13:00:13.653Z,13.05
2017-12-17T13:02:41.336Z,16.95
2017-12-17T13:05:08.975Z,16.73
2017-12-17T13:07:41.748Z,10.82
2017-12-17T13:10:10.209Z,15.95
2017-12-17T13:12:37.973Z,13.88
2017-12-17T13:15:05.665Z,12.85
2017-12-17T13:17:33.502Z,10.20
2017-12-17T13:20:01.425Z,11.70
2017-12-17T13:22:29.425Z,16.33
2017-12-17T13:24:57.905Z,14.00
2017-12-17T13:27:26.497Z,15.85
2017-12-17T13:29:54.166Z,17.58
2017-12-17T13:32:22.591Z,20.10
2017-12-17T13:34:50.376Z,22.33
2017-12-17T13:37:18.000Z,24.15
2017-12-17T13:39:46.612Z,18.58
2017-12-17T13:42:14.473Z,16.45
2017-12-17T13:44:42.127Z,16.37
2017-12-17T13:47:09.767Z,13.32
2017-12-17T13:49:37.636Z,14.75
2017-12-17T13:52:05.512Z,15.02
2017-12-17T13:54:33.371Z,17.05
2017-12-17T13:57:02.097Z,15.50
2017-12-17T13:59:30.181Z,10.90
2017-12-17T14:01:57.858Z,14.52
2017-12-17T14:04:26.656Z,16.08
2017-12-17T14:06:54.753Z,15.55
2017-12-17T14:12:58.243Z,15.48
2017-12-17T14:15:26.462Z,17.52
2017-12-17T14:17:54.286Z,13.20
2017-12-17T14:20:31.777Z,14.90
2017-12-17T14:23:00.457Z,11.50
2017-12-17T14:25:28.108Z,20.05
2017-12-17T14:27:55.747Z,18.37
2017-12-17T14:30:24.059Z,20.10
2017-12-17T14:32:52.513Z,18.58
2017-12-17T14:35:20.149Z,17.02
2017-12-17T14:37:48.711Z,13.98
2017-12-17T14:40:28.218Z,17.65
2017-12-17T14:42:55.874Z,15.13
2017-12-17T14:45:23.543Z,16.60
2017-12-17T14:47:51.229Z,15.13
2017-12-17T14:50:28.116Z,16.30
2017-12-17T14:52:56.609Z,17.23
2017-12-17T14:58:04.250Z,14.77
2017-12-17T15:00:32.174Z,21.62
2017-12-17T15:03:03.744Z,21.60
2017-12-17T15:05:43.710Z,18.12
2017-12-17T15:08:11.586Z,15.45
2017-12-17T15:10:39.594Z,15.48
2017-12-17T15:13:07.323Z,16.50
2017-12-17T15:15:35.622Z,16.10
2017-12-17T15:18:03.397Z,16.40
2017-12-17T15:20:31.054Z,16.60
2017-12-17T15:23:00.118Z,17.92
2017-12-17T15:25:27.794Z,17.67
2017-12-17T15:27:57.219Z,16.80
2017-12-17T15:30:25.921Z,19.05
2017-12-17T15:32:53.683Z,24.65
2017-12-17T15:35:21.488Z,21.62
2017-12-17T15:37:50.496Z,18.87
2017-12-17T15:40:19.068Z,17.65
2017-12-17T15:42:47.144Z,15.18
2017-12-17T15:45:15.820Z,21.90
2017-12-17T15:47:43.683Z,21.80
2017-12-17T15:50:12.288Z,20.37
2017-12-17T15:52:39.979Z,18.33
2017-12-17T15:55:07.694Z,17.02
2017-12-17T15:57:35.313Z,16.92
2017-12-17T16:00:05.091Z,17.50
2017-12-17T16:02:32.705Z,21.85
2017-12-17T16:05:00.443Z,24.87
2017-12-17T16:07:28.172Z,22.17
2017-12-17T16:09:55.836Z,21.80
2017-12-17T16:12:23.555Z,23.08
2017-12-17T16:14:51.351Z,20.80
2017-12-17T16:17:19.483Z,22.02
2017-12-17T16:19:49.281Z,19.45
2017-12-17T16:22:18.561Z,23.92
2017-12-17T16:24:51.643Z,19.40
2017-12-17T16:27:20.261Z,20.77
2017-12-17T16:29:48.044Z,20.90
2017-12-17T16:32:18.176Z,16.83
2017-12-17T16:37:22.569Z,18.05
2017-12-17T16:39:51.682Z,18.73
2017-12-17T16:42:20.353Z,18.12
2017-12-17T16:44:48.948Z,18.52
2017-12-17T16:47:17.416Z,14.90
2017-12-17T16:49:45.103Z,16.55
2017-12-17T16:52:12.976Z,15.10
2017-12-17T16:54:44.048Z,15.35
2017-12-17T16:57:11.719Z,17.67
2017-12-17T16:59:41.841Z,18.65
2017-12-17T17:02:09.554Z,15.05
2017-12-17T17:04:37.290Z,13.15
2017-12-17T17:07:05.358Z,15.43
2017-12-17T17:09:33.320Z,13.30
2017-12-17T17:12:01.067Z,15.30
2017-12-17T17:14:28.712Z,12.75
2017-12-17T17:16:57.059Z,13.57
2017-12-17T17:19:25.764Z,10.65
2017-12-17T17:21:53.404Z,11.80
2017-12-17T17:24:21.047Z,17.48
2017-12-17T17:26:48.958Z,14.48
2017-12-17T17:29:16.838Z,12.77
2017-12-17T17:31:44.788Z,12.70
2017-12-17T17:34:13.365Z,18.83
2017-12-17T17:36:41.022Z,16.87
2017-12-17T17:39:09.299Z,13.52
2017-12-17T17:41:38.116Z,12.73
2017-12-17T17:44:06.031Z,11.88
2017-12-17T17:46:33.730Z,12.35
2017-12-17T17:49:01.377Z,14.95
2017-12-17T17:51:29.288Z,14.60
2017-12-17T17:53:57.013Z,16.33
2017-12-17T17:56:25.179Z,14.40
2017-12-17T17:58:53.738Z,16.05
2017-12-17T18:01:22.120Z,17.50
2017-12-17T18:03:49.916Z,18.48
2017-12-17T18:06:18.103Z,14.75
2017-12-17T18:08:47.488Z,13.43
2017-12-17T18:11:15.864Z,16.62
2017-12-17T18:13:43.646Z,11.85
2017-12-17T18:16:12.284Z,16.48
2017-12-17T18:18:41.510Z,14.63
2017-12-17T18:21:12.954Z,14.80
2017-12-17T18:23:41.352Z,13.73
2017-12-17T18:26:09.179Z,15.30
2017-12-17T18:28:38.168Z,11.93
2017-12-17T18:31:05.853Z,11.07
2017-12-17T18:33:33.739Z,14.25
2017-12-17T18:36:01.570Z,12.18
2017-12-17T18:38:29.386Z,14.93
2017-12-17T18:40:56.972Z,15.02
2017-12-17T18:43:25.235Z,14.73
2017-12-17T18:45:53.052Z,13.38
2017-12-17T18:48:20.819Z,14.23
2017-12-17T18:50:50.301Z,16.17
2017-12-17T18:53:18.753Z,17.35
2017-12-17T18:55:46.347Z,11.43
2017-12-17T18:58:14.654Z,19.83
2017-12-17T19:00:43.073Z,21.17
2017-12-17T19:03:11.833Z,12.13
2017-12-17T19:05:44.804Z,14.40
2017-12-17T19:08:24.535Z,19.02
2017-12-17T19:10:52.460Z,16.73
2017-12-17T19:13:21.249Z,15.07
2017-12-17T19:15:50.373Z,15.25
2017-12-17T19:18:18.022Z,22.20
2017-12-17T19:20:46.330Z,19.77
2017-12-17T19:23:13.994Z,19.12
2017-12-17T19:25:41.632Z,17.60
2017-12-17T19:28:09.284Z,17.20
2017-12-17T19:30:37.689Z,20.77
2017-12-17T19:33:05.415Z,17.02
2017-12-17T19:35:33.200Z,17.83
2017-12-17T19:38:01.717Z,19.85
2017-12-17T19:40:31.608Z,17.90
2017-12-17T19:43:01.012Z,19.33
2017-12-17T19:45:29.660Z,19.20
2017-12-17T19:47:59.022Z,19.05
2017-12-17T19:50:26.733Z,19.37
2017-12-17T19:52:55.164Z,20.35
2017-12-17T19:55:22.872Z,22.15
2017-12-17T19:57:50.648Z,16.50
2017-12-17T20:00:18.578Z,16.17
2017-12-17T20:02:46.396Z,16.77
2017-12-17T20:05:14.655Z,16.30
2017-12-17T20:07:43.335Z,15.32
2017-12-17T20:10:11.087Z,22.02
2017-12-17T20:12:39.851Z,18.80
2017-12-17T20:15:07.762Z,19.98
2017-12-17T20:17:36.547Z,18.27
2017-12-17T20:20:05.706Z,16.55
2017-12-17T20:22:36.374Z,15.88
2017-12-17T20:25:04.198Z,15.25
2017-12-17T20:27:32.317Z,19.65
2017-12-17T20:29:59.915Z,16.67
2017-12-17T20:32:28.163Z,16.98
2017-12-17T20:34:55.784Z,25.75
2017-12-17T20:37:24.124Z,17.83
2017-12-17T20:39:52.729Z,18.02
2017-12-17T20:42:20.399Z,20.15
2017-12-17T20:44:48.645Z,17.55
2017-12-17T20:47:16.265Z,16.25
2017-12-17T20:49:44.095Z,17.08
2017-12-17T20:52:12.522Z,16.83
2017-12-17T20:54:40.155Z,16.50
2017-12-17T20:57:08.021Z,16.55
2017-12-17T20:59:36.542Z,18.00
2017-12-17T21:02:11.950Z,19.67
2017-12-17T21:04:39.772Z,15.55
2017-12-17T21:07:07.340Z,17.42
2017-12-17T21:09:34.933Z,14.87
2017-12-17T21:12:02.495Z,23.50
2017-12-17T21:14:32.117Z,20.45
2017-12-17T21:16:59.746Z,20.33
2017-12-17T21:19:27.408Z,13.27
2017-12-17T21:22:04.099Z,14.82
2017-12-17T21:24:32.821Z,14.77
2017-12-17T21:27:00.395Z,16.62
2017-12-17T21:29:28.023Z,17.23
2017-12-17T21:31:55.629Z,13.30
2017-12-17T21:34:23.443Z,12.23
2017-12-17T21:36:51.636Z,13.77
2017-12-17T21:39:20.282Z,15.55
2017-12-17T21:41:47.918Z,16.90
2017-12-17T21:44:16.454Z,14.18
2017-12-17T21:46:44.082Z,15.73
2017-12-17T21:49:12.379Z,16.40
2017-12-17T21:51:39.971Z,16.05
2017-12-17T21:54:07.583Z,19.08
2017-12-17T21:56:35.378Z,14.32
2017-12-17T21:59:03.183Z,12.00
2017-12-17T22:01:30.851Z,17.05
2017-12-17T22:04:06.437Z,16.58
2017-12-17T22:06:51.823Z,13.73
2017-12-17T22:09:20.047Z,15.93
2017-12-17T22:11:47.797Z,12.93
2017-12-17T22:14:17.270Z,12.90
2017-12-17T22:16:44.935Z,15.80
2017-12-17T22:19:12.586Z,12.48
2017-12-17T22:21:40.170Z,16.00
2017-12-17T22:24:07.792Z,18.40
2017-12-17T22:26:35.400Z,26.70
2017-12-17T22:29:06.677Z,18.15
2017-12-17T22:31:35.164Z,17.92
2017-12-17T22:34:04.828Z,12.77
2017-12-17T22:36:32.588Z,11.32
2017-12-17T22:39:01.295Z,11.00
2017-12-17T22:41:29.151Z,13.50
2017-12-17T22:43:56.737Z,16.48
2017-12-17T22:46:24.967Z,13.02
2017-12-17T22:48:52.589Z,12.57
2017-12-17T22:51:21.510Z,17.35
2017-12-17T22:53:50.618Z,13.90
2017-12-17T22:56:18.448Z,14.07
2017-12-17T22:58:46.600Z,13.15
2017-12-17T23:01:14.152Z,13.60
2017-12-17T23:03:41.932Z,13.27
2017-12-17T23:06:09.726Z,13.73
2017-12-17T23:08:37.315Z,14.73
2017-12-17T23:11:05.538Z,13.52
2017-12-17T23:13:33.295Z,14.10
2017-12-17T23:16:00.890Z,11.82
2017-12-17T23:18:28.515Z,14.38
2017-12-17T23:20:56.294Z,14.68
2017-12-17T23:23:23.953Z,14.40
2017-12-17T23:25:51.767Z,13.73
2017-12-17T23:28:19.552Z,14.13
2017-12-17T23:30:47.497Z,15.07
2017-12-17T23:33:15.166Z,15.20
2017-12-17T23:35:43.561Z,14.43
2017-12-17T23:38:11.194Z,14.07
2017-12-17T23:40:38.955Z,11.88
2017-12-17T23:43:06.628Z,12.98
2017-12-17T23:45:34.267Z,12.50
2017-12-17T23:48:03.154Z,12.37
2017-12-17T23:50:30.711Z,13.95
2017-12-17T23:52:58.297Z,12.95
2017-12-17T23:55:25.842Z,14.77
2017-12-17T23:57:53.736Z,16.08
